This is the latest recevied weather packets stored in our database for station/object K0APR. If no packets are shown the sender has not sent any weather packets the latest 10 day(s).
| Time | Temp. | Humidity | Pressure | Rain* | Wind** | Luminosity | Snow |
|---|---|---|---|---|---|---|---|
| 1777839022 | 20° C | 33% | 1008.1 hPa | 0 mm | - | 68 W/m² | - |
| 1777838718 | 20.56° C | 32% | 1008.1 hPa | 0 mm | - | 60 W/m² | - |
| 1777838415 | 20° C | 34% | 1008.4 hPa | 0 mm | - | 303 W/m² | - |
| 1777838113 | 20.56° C | 33% | 1008.1 hPa | 0 mm | - | 632 W/m² | - |
| 1777837809 | 20° C | 35% | 1008.4 hPa | 0 mm | - | 636 W/m² | - |
| 1777837507 | 20° C | 35% | 1008.4 hPa | 0 mm | - | 652 W/m² | - |
| 1777837206 | 20° C | 34% | 1008.4 hPa | 0 mm | - | 658 W/m² | - |
| 1777836903 | 20.56° C | 33% | 1008.8 hPa | 0 mm | - | 663 W/m² | - |
| 1777836598 | 20° C | 34% | 1008.8 hPa | 0 mm | - | 658 W/m² | - |
| 1777836294 | 20° C | 34% | 1008.8 hPa | 0 mm | - | 538 W/m² | - |
| 1777835990 | 20° C | 34% | 1008.8 hPa | 0 mm | - | 642 W/m² | - |
| 1777835688 | 19.44° C | 37% | 1009.2 hPa | 0 mm | - | 629 W/m² | - |
| 1777835384 | 19.44° C | 33% | 1009.2 hPa | 0 mm | - | 611 W/m² | - |
| 1777835082 | 19.44° C | 34% | 1009.2 hPa | 0 mm | - | 619 W/m² | - |
| 1777834778 | 19.44° C | 34% | 1009.2 hPa | 0 mm | - | 653 W/m² | - |
| 1777834475 | 19.44° C | 34% | 1009.2 hPa | 0 mm | - | 670 W/m² | - |
| 1777834174 | 19.44° C | 34% | 1009.2 hPa | 0 mm | - | 670 W/m² | - |
| 1777833871 | 19.44° C | 35% | 1009.2 hPa | 0 mm | - | 638 W/m² | - |
| 1777833567 | 18.89° C | 36% | 1009.2 hPa | 0 mm | - | 636 W/m² | - |
| 1777833264 | 18.89° C | 36% | 1009.5 hPa | 0 mm | - | 643 W/m² | - |
| 1777832961 | 18.89° C | 35% | 1009.5 hPa | 0 mm | - | 639 W/m² | - |
| 1777832660 | 18.89° C | 35% | 1009.5 hPa | 0 mm | - | 612 W/m² | - |
| 1777832357 | 18.89° C | 35% | 1009.5 hPa | 0 mm | - | 612 W/m² | - |
| 1777832054 | 18.33° C | 38% | 1009.5 hPa | 0 mm | - | 640 W/m² | - |
| 1777831750 | 18.89° C | 37% | 1009.8 hPa | 0 mm | - | 651 W/m² | - |
* Rain latest hour (hover to see other rain measurements)
** Current wind speed in m/s (hover to see current wind gust speed)